Time;durP1;ratioP1;P1;durP2;ratioP2;P2;SDS_P1;SDS_P2;PMS_P1;PMS_P2;Temp;Humidity;BMP_temperature;BMP_pressure;BME280_temperature;BME280_humidity;BME280_pressure;Samples;Min_cycle;Max_cycle;Signal;HPM_P1;HPM_P2
2023/10/19 00:01:23;;;;;;;;;;;;;;;10.04;100.00;99235.22;5041913;28;19916;-90
2023/10/19 00:03:49;;;;;;;;;;;;;;;10.08;100.00;99228.13;5057950;28;20288;-90
2023/10/19 00:06:18;;;;;;;;;;;;;;;10.14;100.00;99223.53;5041158;28;19920;-91
2023/10/19 00:08:46;;;;;;;;;;;;;;;10.15;100.00;99227.00;5057613;28;20003;-91
2023/10/19 00:11:33;;;;;;;;;;;;;;;10.21;100.00;99221.53;5057573;28;19939;-90
2023/10/19 00:13:57;;;;;;;;;;;;;;;10.16;100.00;99226.09;5059874;28;20269;-91
2023/10/19 00:16:26;;;;;;;;;;;;;;;10.27;100.00;99234.44;5056914;28;19919;-90
2023/10/19 00:18:52;;;;;;;;;;;;;;;10.31;100.00;99241.22;5041192;28;19939;-91
2023/10/19 00:42:44;;;;;;;;;;;;;;;10.69;100.00;99243.41;5054907;28;20371;-90
2023/10/19 00:51:27;;;;;;;;;;;;;;;10.69;100.00;99214.59;5054712;28;20387;-91
2023/10/19 00:53:56;;;;;;;;;;;;;;;10.80;100.00;99219.41;5054779;28;20395;-91
2023/10/19 00:56:25;;;;;;;;;;;;;;;10.97;100.00;99229.22;5053643;28;19963;-90
2023/10/19 00:58:59;;;;;;;;;;;;;;;10.90;100.00;99208.50;5053613;28;19913;-91
2023/10/19 01:01:28;;;;;;;;;;;;;;;11.06;100.00;99218.38;5053454;28;19917;-91
2023/10/19 01:03:56;;;;;;;;;;;;;;;11.12;100.00;99205.03;5054215;28;19913;-90
2023/10/19 01:06:23;;;;;;;;;;;;;;;11.27;100.00;99203.53;5053363;28;19913;-91
2023/10/19 01:08:50;;;;;;;;;;;;;;;11.46;100.00;99206.25;5053317;28;20399;-90
2023/10/19 01:11:19;;;;;;;;;;;;;;;11.44;100.00;99208.94;5054406;28;19913;-91
2023/10/19 01:13:48;;;;;;;;;;;;;;;11.55;100.00;99205.00;5070212;28;19962;-91
2023/10/19 01:16:20;;;;;;;;;;;;;;;11.64;100.00;99207.28;5046185;28;19913;-91
2023/10/19 01:18:47;;;;;;;;;;;;;;;11.72;100.00;99213.06;5074898;28;19931;-91
2023/10/19 01:21:18;;;;;;;;;;;;;;;11.75;100.00;99215.53;5056583;28;19921;-91
2023/10/19 01:23:44;;;;;;;;;;;;;;;11.72;100.00;99217.44;5056465;28;19924;-90
2023/10/19 01:26:10;;;;;;;;;;;;;;;11.64;100.00;99215.13;5056463;28;19965;-92
2023/10/19 01:28:53;;;;;;;;;;;;;;;11.76;100.00;99206.72;5055670;28;20315;-92
2023/10/19 01:33:55;;;;;;;;;;;;;;;11.65;100.00;99203.75;5074117;28;19948;-91
2023/10/19 01:39:25;;;;;;;;;;;;;;;11.72;100.00;99199.94;5074092;28;19923;-92
2023/10/19 01:44:53;;;;;;;;;;;;;;;11.78;100.00;99197.03;5073854;28;20421;-91
2023/10/19 01:47:20;;;;;;;;;;;;;;;11.84;100.00;99200.28;5056326;28;19917;-92
2023/10/19 01:49:52;;;;;;;;;;;;;;;11.78;100.00;99201.44;5074405;28;19924;-92
2023/10/19 01:52:17;;;;;;;;;;;;;;;11.84;100.00;99190.66;5073064;28;19919;-93
2023/10/19 01:54:44;;;;;;;;;;;;;;;11.90;100.00;99190.41;5056149;28;20280;-92
2023/10/19 01:57:12;;;;;;;;;;;;;;;11.88;100.00;99197.50;5056128;28;20300;-91
2023/10/19 01:59:37;;;;;;;;;;;;;;;11.97;100.00;99198.91;5051349;28;19926;-93
2023/10/19 02:02:02;;;;;;;;;;;;;;;12.06;100.00;99189.75;5054040;28;20376;-92
2023/10/19 02:04:28;;;;;;;;;;;;;;;11.99;100.00;99193.56;5036037;28;19982;-91
2023/10/19 02:06:53;;;;;;;;;;;;;;;12.15;100.00;99193.75;5052353;28;19912;-91
2023/10/19 02:09:23;;;;;;;;;;;;;;;12.07;100.00;99196.72;5059820;28;19916;-91
2023/10/19 02:11:58;;;;;;;;;;;;;;;12.18;100.00;99196.22;5057696;28;19924;-91
2023/10/19 02:14:31;;;;;;;;;;;;;;;12.22;100.00;99185.50;5073699;28;19970;-91
2023/10/19 02:16:57;;;;;;;;;;;;;;;12.26;100.00;99191.50;5055913;28;19919;-92
2023/10/19 02:19:24;;;;;;;;;;;;;;;12.35;100.00;99180.56;5073519;28;19916;-91
2023/10/19 02:24:52;;;;;;;;;;;;;;;12.32;100.00;99185.97;5073573;28;19966;-91
2023/10/19 02:27:17;;;;;;;;;;;;;;;12.39;100.00;99181.28;5073834;28;20353;-91
2023/10/19 02:29:43;;;;;;;;;;;;;;;12.47;100.00;99184.41;5039227;28;20365;-91
2023/10/19 02:32:09;;;;;;;;;;;;;;;12.52;100.00;99173.69;5038872;28;19924;-90
2023/10/19 02:34:35;;;;;;;;;;;;;;;12.59;100.00;99177.75;5039247;28;19974;-91
2023/10/19 02:37:01;;;;;;;;;;;;;;;12.63;100.00;99172.25;5038859;28;19916;-90
2023/10/19 02:39:29;;;;;;;;;;;;;;;12.68;100.00;99172.03;5057026;28;19921;-91
2023/10/19 02:41:54;;;;;;;;;;;;;;;12.76;100.00;99172.53;5043306;28;19920;-90
2023/10/19 02:44:22;;;;;;;;;;;;;;;12.87;100.00;99176.41;5059496;28;20292;-91
2023/10/19 02:46:52;;;;;;;;;;;;;;;12.93;100.00;99176.13;5077464;28;19921;-91
2023/10/19 02:49:18;;;;;;;;;;;;;;;13.03;100.00;99172.16;5059325;28;19967;-90
2023/10/19 02:54:46;;;;;;;;;;;;;;;13.17;100.00;99174.09;5077425;28;19924;-91
2023/10/19 02:57:13;;;;;;;;;;;;;;;13.16;100.00;99173.25;5059399;28;20300;-91
2023/10/19 02:59:39;;;;;;;;;;;;;;;13.23;100.00;99183.44;5062692;28;19931;-92
2023/10/19 03:02:16;;;;;;;;;;;;;;;13.03;100.00;99179.16;5079144;28;20340;-92
2023/10/19 03:04:45;;;;;;;;;;;;;;;13.08;100.00;99180.66;5096146;28;19919;-92
2023/10/19 03:07:15;;;;;;;;;;;;;;;13.11;100.00;99177.03;5079134;28;19947;-91
2023/10/19 03:09:48;;;;;;;;;;;;;;;12.97;100.00;99173.28;5063219;28;19955;-90
2023/10/19 03:12:13;;;;;;;;;;;;;;;12.89;100.00;99167.53;5079167;28;19969;-91
2023/10/19 03:14:39;;;;;;;;;;;;;;;12.89;100.00;99166.72;5097159;28;19912;-91
2023/10/19 03:17:05;;;;;;;;;;;;;;;12.79;100.00;99168.91;5078818;28;20283;-92
2023/10/19 03:19:30;;;;;;;;;;;;;;;12.77;100.00;99169.00;5079004;28;19923;-91
2023/10/19 03:21:59;;;;;;;;;;;;;;;12.75;100.00;99170.81;5079114;28;19912;-92
2023/10/19 03:24:45;;;;;;;;;;;;;;;12.70;100.00;99162.31;5062741;28;19920;-92
2023/10/19 03:27:17;;;;;;;;;;;;;;;12.66;100.00;99160.75;5079067;28;20433;-91
2023/10/19 03:29:47;;;;;;;;;;;;;;;12.74;100.00;99161.25;5078663;28;19912;-91
2023/10/19 03:32:14;;;;;;;;;;;;;;;12.67;100.00;99153.72;5096926;28;19913;-90
2023/10/19 03:34:43;;;;;;;;;;;;;;;12.69;100.00;99154.50;5078507;28;19915;-90
2023/10/19 03:37:14;;;;;;;;;;;;;;;12.73;100.00;99151.66;5078527;28;19912;-91
2023/10/19 03:39:40;;;;;;;;;;;;;;;12.74;100.00;99148.13;5078931;28;19924;-91
2023/10/19 03:42:08;;;;;;;;;;;;;;;12.76;100.00;99148.03;5078410;28;19916;-91
2023/10/19 03:47:19;;;;;;;;;;;;;;;12.81;100.00;99146.91;5096966;28;19916;-92
2023/10/19 03:49:46;;;;;;;;;;;;;;;12.75;100.00;99141.91;5079323;28;20426;-91
2023/10/19 03:54:40;;;;;;;;;;;;;;;12.80;100.00;99145.19;5096660;28;19919;-91
2023/10/19 03:57:19;;;;;;;;;;;;;;;12.77;100.00;99136.56;5078452;28;19916;-91
2023/10/19 03:59:45;;;;;;;;;;;;;;;12.81;100.00;99146.91;5079069;28;19966;-91
2023/10/19 04:02:13;;;;;;;;;;;;;;;12.78;100.00;99140.91;5096524;28;20301;-91
2023/10/19 04:04:43;;;;;;;;;;;;;;;12.90;100.00;99136.84;5078448;28;19916;-91
2023/10/19 04:07:26;;;;;;;;;;;;;;;12.81;100.00;99139.00;5077969;28;20276;-90
2023/10/19 04:12:42;;;;;;;;;;;;;;;12.87;100.00;99134.38;5096378;28;19924;-91
2023/10/19 04:15:17;;;;;;;;;;;;;;;12.94;100.00;99133.13;5096022;28;19944;-92
2023/10/19 04:17:44;;;;;;;;;;;;;;;13.01;100.00;99129.28;5077785;28;20318;-92
2023/10/19 04:22:43;;;;;;;;;;;;;;;13.08;100.00;99143.81;5096154;28;19912;-91
2023/10/19 04:25:12;;;;;;;;;;;;;;;12.99;100.00;99144.28;5096174;28;19951;-91
2023/10/19 04:27:37;;;;;;;;;;;;;;;13.07;100.00;99139.50;5095759;28;19920;-91
2023/10/19 04:30:03;;;;;;;;;;;;;;;13.07;100.00;99136.03;5079486;28;19912;-91
2023/10/19 04:32:28;;;;;;;;;;;;;;;12.97;100.00;99127.72;5079534;28;20010;-91
2023/10/19 04:34:54;;;;;;;;;;;;;;;13.00;100.00;99130.19;5060982;28;19919;-91
2023/10/19 04:37:19;;;;;;;;;;;;;;;13.00;100.00;99128.44;5095597;28;19912;-91
2023/10/19 04:39:45;;;;;;;;;;;;;;;12.99;100.00;99133.78;5055865;28;19932;-92
2023/10/19 04:42:10;;;;;;;;;;;;;;;13.00;100.00;99130.19;5054102;28;19919;-91
2023/10/19 04:44:35;;;;;;;;;;;;;;;12.98;100.00;99129.44;5070483;28;19913;-91
2023/10/19 04:47:01;;;;;;;;;;;;;;;12.99;100.00;99132.00;5055422;28;19958;-91
2023/10/19 04:49:26;;;;;;;;;;;;;;;12.96;100.00;99128.69;5087377;28;19921;-92
2023/10/19 04:51:51;;;;;;;;;;;;;;;13.03;100.00;99134.47;5070632;28;20016;-92
2023/10/19 05:00:24;;;;;;;;;;;;;;;13.08;100.00;99149.09;5054773;28;19924;-91
2023/10/19 05:02:51;;;;;;;;;;;;;;;13.09;100.00;99149.97;5070505;28;20385;-93
2023/10/19 05:05:17;;;;;;;;;;;;;;;13.00;100.00;99143.34;5086900;28;19924;-92
2023/10/19 05:07:42;;;;;;;;;;;;;;;13.03;100.00;99151.13;5070116;28;19913;-91
2023/10/19 05:10:07;;;;;;;;;;;;;;;13.03;100.00;99150.25;5070220;28;19994;-91
2023/10/19 05:12:34;;;;;;;;;;;;;;;13.00;100.00;99148.59;5067759;28;19942;-91
2023/10/19 05:15:00;;;;;;;;;;;;;;;12.96;100.00;99150.53;5053587;28;19916;-91
2023/10/19 05:17:27;;;;;;;;;;;;;;;12.97;100.00;99157.53;5090411;28;19999;-90
2023/10/19 05:23:00;;;;;;;;;;;;;;;13.02;100.00;99149.41;5074362;28;19928;-91
2023/10/19 05:31:31;;;;;;;;;;;;;;;13.08;100.00;99162.22;5073321;28;20334;-90
2023/10/19 05:33:56;;;;;;;;;;;;;;;13.07;100.00;99152.63;5054650;28;19913;-89
2023/10/19 05:36:21;;;;;;;;;;;;;;;13.13;100.00;99162.88;5054425;28;19959;-91
2023/10/19 05:38:47;;;;;;;;;;;;;;;13.11;100.00;99153.34;5053082;28;19975;-90
2023/10/19 05:41:21;;;;;;;;;;;;;;;13.20;100.00;99154.66;5052973;28;19921;-90
2023/10/19 05:43:46;;;;;;;;;;;;;;;13.09;100.00;99163.94;5086260;28;20027;-92
2023/10/19 05:46:18;;;;;;;;;;;;;;;13.11;100.00;99159.44;5054130;28;20357;-90
2023/10/19 05:48:46;;;;;;;;;;;;;;;13.07;100.00;99163.16;5036094;28;19917;-90
2023/10/19 05:51:14;;;;;;;;;;;;;;;13.03;100.00;99169.50;5053292;28;19920;-90
2023/10/19 05:53:48;;;;;;;;;;;;;;;12.99;100.00;99170.59;5036348;28;20266;-90
2023/10/19 05:56:16;;;;;;;;;;;;;;;13.13;100.00;99175.16;5054052;28;19913;-90
2023/10/19 05:58:41;;;;;;;;;;;;;;;13.14;100.00;99172.44;5055234;28;19912;-90
2023/10/19 06:01:13;;;;;;;;;;;;;;;13.15;100.00;99175.94;5056569;28;20011;-90
2023/10/19 06:03:38;;;;;;;;;;;;;;;13.18;100.00;99171.38;5056681;28;20337;-91
2023/10/19 06:06:07;;;;;;;;;;;;;;;13.14;100.00;99168.97;5073784;28;20277;-89
2023/10/19 06:08:32;;;;;;;;;;;;;;;13.15;100.00;99174.16;5056961;28;20340;-90
2023/10/19 06:10:57;;;;;;;;;;;;;;;13.11;100.00;99169.97;5056126;28;19961;-91
2023/10/19 06:13:23;;;;;;;;;;;;;;;13.17;100.00;99179.34;5073458;28;19989;-90
2023/10/19 06:15:48;;;;;;;;;;;;;;;13.11;100.00;99174.38;5055886;28;20368;-90
2023/10/19 06:18:29;;;;;;;;;;;;;;;13.05;100.00;99179.97;5056088;28;20452;-90
2023/10/19 06:20:57;;;;;;;;;;;;;;;13.05;100.00;99183.44;5055578;28;20339;-90
2023/10/19 06:23:23;;;;;;;;;;;;;;;13.11;100.00;99180.50;5056256;28;19994;-90
2023/10/19 06:25:54;;;;;;;;;;;;;;;13.05;100.00;99185.22;5039537;28;19924;-90
2023/10/19 06:28:19;;;;;;;;;;;;;;;13.09;100.00;99182.34;5055658;28;19935;-90
2023/10/19 06:30:48;;;;;;;;;;;;;;;13.05;100.00;99182.59;5055839;28;19913;-90
2023/10/19 06:33:13;;;;;;;;;;;;;;;13.09;100.00;99189.41;5055446;28;19912;-90
2023/10/19 06:35:38;;;;;;;;;;;;;;;13.00;100.00;99182.78;5039041;28;20439;-90
2023/10/19 06:38:12;;;;;;;;;;;;;;;13.13;100.00;99185.66;5055427;28;20007;-90
2023/10/19 06:40:37;;;;;;;;;;;;;;;13.05;100.00;99180.78;5055080;28;19923;-89
2023/10/19 06:43:04;;;;;;;;;;;;;;;13.18;100.00;99192.41;5055464;28;20011;-88
2023/10/19 06:45:43;;;;;;;;;;;;;;;13.17;100.00;99190.72;5055412;28;19923;-89
2023/10/19 06:48:23;;;;;;;;;;;;;;;13.13;100.00;99196.19;5039543;28;20284;-89
2023/10/19 06:50:48;;;;;;;;;;;;;;;13.11;100.00;99196.28;5073010;28;20299;-89
2023/10/19 06:53:15;;;;;;;;;;;;;;;13.14;100.00;99201.38;5049569;28;19954;-88
2023/10/19 06:56:04;;;;;;;;;;;;;;;13.17;100.00;99203.88;5055798;28;19999;-89
2023/10/19 06:58:42;;;;;;;;;;;;;;;;;;;;;
2023/10/19 07:07:21;;;;;;;;;;;;;;;13.29;100.00;99202.41;5011460;28;19920;-89
2023/10/19 07:09:51;;;;;;;;;;;;;;;13.36;100.00;99197.75;5033591;28;19916;-89
2023/10/19 07:12:36;;;;;;;;;;;;;;;13.31;100.00;99216.34;5043039;28;19925;-90
2023/10/19 07:18:06;;;;;;;;;;;;;;;13.46;100.00;99220.03;5053134;28;20414;-89
2023/10/19 07:23:37;;;;;;;;;;;;;;;13.54;100.00;99219.66;5044449;28;19924;-89
2023/10/19 07:29:08;;;;;;;;;;;;;;;13.67;100.00;99219.88;5036779;28;20055;-89
2023/10/19 07:31:33;;;;;;;;;;;;;;;13.70;100.00;99230.25;5019075;28;20324;-90
2023/10/19 07:33:58;;;;;;;;;;;;;;;13.64;100.00;99220.03;5035458;28;19976;-90
2023/10/19 07:36:25;;;;;;;;;;;;;;;13.58;100.00;99225.63;5040548;28;19917;-89
2023/10/19 07:41:55;;;;;;;;;;;;;;;13.61;100.00;99215.78;5056672;28;19927;-90
2023/10/19 07:44:32;;;;;;;;;;;;;;;;;;;;;
2023/10/19 07:50:54;;;;;;;;;;;;;;;13.64;100.00;99209.53;5014285;28;20040;-88
2023/10/19 07:54:08;;;;;;;;;;;;;;;;;;;;;
2023/10/19 08:06:34;;;;;;;;;;;;;;;14.11;100.00;99210.66;4975041;28;19924;-89
2023/10/19 08:09:08;;;;;;;;;;;;;;;14.15;100.00;99205.13;4959334;28;20347;-89
2023/10/19 08:11:42;;;;;;;;;;;;;;;14.16;100.00;99201.53;4963579;28;20339;-90
2023/10/19 08:17:16;;;;;;;;;;;;;;;14.24;100.00;99187.97;5049274;28;20378;-90
2023/10/19 08:23:01;;;;;;;;;;;;;;;14.23;100.00;99191.53;5075696;28;19963;-89
2023/10/19 08:29:11;;;;;;;;;;;;;;;14.25;100.00;99187.06;5075523;28;19927;-89
2023/10/19 08:32:21;;;;;;;;;;;;;;;14.26;100.00;99178.19;5035113;28;19919;-91
2023/10/19 08:35:07;;;;;;;;;;;;;;;14.44;100.00;99178.13;5049728;28;20008;-89
2023/10/19 08:37:53;;;;;;;;;;;;;;;14.53;100.00;99178.50;5036939;28;19963;-89
2023/10/19 08:43:55;;;;;;;;;;;;;;;14.58;100.00;99186.13;5013462;28;20000;-89
2023/10/19 08:59:14;;;;;;;;;;;;;;;15.79;100.00;99174.94;5013625;28;19956;-89
2023/10/19 09:01:49;;;;;;;;;;;;;;;16.36;100.00;99183.81;4998490;28;19924;-89
2023/10/19 09:07:56;;;;;;;;;;;;;;;16.71;100.00;99183.41;5004764;28;20296;-89
2023/10/19 09:10:36;;;;;;;;;;;;;;;16.86;100.00;99178.94;5013424;28;20392;-89
2023/10/19 09:13:04;;;;;;;;;;;;;;;17.15;100.00;99177.03;4997370;28;20499;-91
2023/10/19 09:28:13;;;;;;;;;;;;;;;17.62;100.00;99157.13;5010196;28;20309;-91
2023/10/19 09:30:45;;;;;;;;;;;;;;;18.30;100.00;99159.59;5037664;28;20268;-89
2023/10/19 09:33:13;;;;;;;;;;;;;;;18.81;96.44;99153.31;5036267;28;19913;-91
2023/10/19 09:38:50;;;;;;;;;;;;;;;18.68;96.68;99158.69;5055307;28;19919;-92
2023/10/19 09:41:28;;;;;;;;;;;;;;;18.84;93.94;99158.41;5037491;28;19978;-90
2023/10/19 09:43:58;;;;;;;;;;;;;;;18.67;97.32;99155.16;5037070;28;19919;-90
2023/10/19 09:46:31;;;;;;;;;;;;;;;18.58;100.00;99162.94;5036244;28;19944;-90
2023/10/19 09:48:56;;;;;;;;;;;;;;;18.71;97.15;99166.41;5024516;28;19952;-91
2023/10/19 09:51:28;;;;;;;;;;;;;;;18.53;94.25;99165.91;5016946;28;19917;-90
2023/10/19 09:54:02;;;;;;;;;;;;;;;18.23;97.04;99169.81;5033719;28;19963;-90
2023/10/19 09:56:32;;;;;;;;;;;;;;;17.93;99.56;99168.34;5017467;28;19917;-90
2023/10/19 09:58:59;;;;;;;;;;;;;;;17.80;100.00;99157.69;5016795;28;19917;-91
2023/10/19 10:01:28;;;;;;;;;;;;;;;17.73;100.00;99167.03;5017184;28;19925;-90
2023/10/19 10:03:57;;;;;;;;;;;;;;;17.51;100.00;99154.38;5016046;28;19913;-89
2023/10/19 10:06:33;;;;;;;;;;;;;;;17.38;100.00;99145.56;5033223;28;19924;-90
2023/10/19 10:09:21;;;;;;;;;;;;;;;17.29;100.00;99147.03;5033944;28;19912;-90
2023/10/19 10:11:52;;;;;;;;;;;;;;;17.34;100.00;99149.38;5016004;28;19921;-89
2023/10/19 10:14:29;;;;;;;;;;;;;;;17.16;100.00;99131.13;5033470;28;19921;-89
2023/10/19 10:17:05;;;;;;;;;;;;;;;17.15;100.00;99124.13;5034203;28;19925;-89
2023/10/19 10:19:30;;;;;;;;;;;;;;;17.13;100.00;99131.31;5036151;28;20008;-89
2023/10/19 10:22:14;;;;;;;;;;;;;;;17.07;100.00;99131.75;5035522;28;19955;-89
2023/10/19 10:24:41;;;;;;;;;;;;;;;17.18;100.00;99128.38;5035557;28;19920;-90
2023/10/19 10:27:06;;;;;;;;;;;;;;;17.06;100.00;99135.31;5035872;28;19912;-89
2023/10/19 10:29:32;;;;;;;;;;;;;;;17.05;100.00;99139.78;5035656;28;20463;-89
2023/10/19 10:32:09;;;;;;;;;;;;;;;17.11;100.00;99146.44;5046544;28;19916;-89
2023/10/19 10:34:38;;;;;;;;;;;;;;;17.30;100.00;99146.09;5055616;28;19917;-89
2023/10/19 10:37:15;;;;;;;;;;;;;;;17.49;100.00;99143.03;5071976;28;19919;-89
2023/10/19 10:39:53;;;;;;;;;;;;;;;17.73;98.95;99144.97;5073983;28;19935;-89
2023/10/19 10:42:24;;;;;;;;;;;;;;;17.69;99.67;99135.56;5050176;28;19912;-89
2023/10/19 10:44:55;;;;;;;;;;;;;;;17.74;100.00;99142.22;5055322;28;19958;-89
2023/10/19 10:47:24;;;;;;;;;;;;;;;17.65;100.00;99145.50;5055630;28;19924;-89
2023/10/19 10:50:01;;;;;;;;;;;;;;;17.69;100.00;99143.50;5055670;28;19913;-88
2023/10/19 10:52:36;;;;;;;;;;;;;;;17.59;97.69;99141.47;5055705;28;19912;-89
2023/10/19 10:55:12;;;;;;;;;;;;;;;17.84;98.37;99142.41;5055247;28;19913;-90
2023/10/19 10:57:41;;;;;;;;;;;;;;;17.72;96.67;99127.38;5055280;28;19970;-90
2023/10/19 11:00:15;;;;;;;;;;;;;;;17.60;99.60;99140.53;5057059;28;20285;-89
2023/10/19 11:02:47;;;;;;;;;;;;;;;17.66;98.92;99145.38;5077411;28;19919;-89
2023/10/19 11:05:13;;;;;;;;;;;;;;;17.63;97.25;99150.06;5075037;28;19924;-89
2023/10/19 11:07:57;;;;;;;;;;;;;;;17.50;99.01;99150.03;5059649;28;20026;-89
2023/10/19 11:10:31;;;;;;;;;;;;;;;17.38;99.25;99150.84;5076308;28;19912;-89
2023/10/19 11:13:06;;;;;;;;;;;;;;;17.35;98.61;99145.78;5041196;28;20130;-89
2023/10/19 11:15:36;;;;;;;;;;;;;;;17.11;97.32;99134.06;5057148;28;19959;-89
2023/10/19 11:18:02;;;;;;;;;;;;;;;17.19;99.93;99135.38;5039097;28;19913;-89
2023/10/19 11:20:28;;;;;;;;;;;;;;;17.04;99.79;99126.63;5038960;28;19999;-89
2023/10/19 11:22:57;;;;;;;;;;;;;;;17.22;100.00;99127.22;5055410;28;19923;-88
2023/10/19 11:25:31;;;;;;;;;;;;;;;17.14;100.00;99107.41;5038776;28;19993;-89
2023/10/19 11:28:16;;;;;;;;;;;;;;;17.31;100.00;99108.06;5038783;28;19925;-89
2023/10/19 11:30:41;;;;;;;;;;;;;;;17.36;100.00;99100.66;5039196;28;19917;-89
2023/10/19 11:33:08;;;;;;;;;;;;;;;17.38;100.00;99106.69;5037905;28;19919;-89
2023/10/19 11:35:34;;;;;;;;;;;;;;;17.49;100.00;99108.63;5038689;28;20017;-89
2023/10/19 11:38:00;;;;;;;;;;;;;;;17.72;100.00;99101.75;5039442;28;19920;-89
2023/10/19 11:40:26;;;;;;;;;;;;;;;17.85;98.15;99096.44;5038489;28;19917;-88
2023/10/19 11:42:52;;;;;;;;;;;;;;;17.77;96.76;99094.34;5038972;28;19959;-90
2023/10/19 11:45:23;;;;;;;;;;;;;;;17.62;98.66;99101.53;5039173;28;19916;-91
2023/10/19 11:47:49;;;;;;;;;;;;;;;17.34;98.33;99097.28;5055107;28;19948;-90
2023/10/19 11:53:36;;;;;;;;;;;;;;;17.34;100.00;99088.47;5061784;28;20445;-88
2023/10/19 11:59:04;;;;;;;;;;;;;;;17.02;100.00;99084.38;5076586;28;19923;-89
2023/10/19 12:01:39;;;;;;;;;;;;;;;17.01;100.00;99080.06;5057978;28;20280;-89
2023/10/19 12:04:05;;;;;;;;;;;;;;;17.05;100.00;99084.22;5041546;28;19969;-89
2023/10/19 12:06:30;;;;;;;;;;;;;;;16.95;100.00;99075.16;5058001;28;20301;-88
2023/10/19 12:09:14;;;;;;;;;;;;;;;16.79;100.00;99076.16;5058250;28;19948;-88
2023/10/19 12:12:05;;;;;;;;;;;;;;;16.69;100.00;99069.75;5022471;28;19956;-90
2023/10/19 12:14:47;;;;;;;;;;;;;;;16.65;100.00;99078.00;5073861;28;20364;-89
2023/10/19 12:17:32;;;;;;;;;;;;;;;16.58;100.00;99081.06;5057794;28;19912;-90
2023/10/19 12:20:21;;;;;;;;;;;;;;;16.61;100.00;99075.56;5058556;28;19923;-88
2023/10/19 12:25:48;;;;;;;;;;;;;;;16.49;100.00;99068.41;5064740;28;19912;-89
2023/10/19 12:28:24;;;;;;;;;;;;;;;16.41;100.00;99062.78;5057364;28;19913;-88
2023/10/19 12:33:56;;;;;;;;;;;;;;;16.46;100.00;99063.31;5076365;28;19913;-89
2023/10/19 12:36:44;;;;;;;;;;;;;;;16.45;100.00;99056.38;5074260;28;20261;-89
2023/10/19 12:39:35;;;;;;;;;;;;;;;16.46;100.00;99058.03;5045899;28;19923;-90
2023/10/19 12:42:08;;;;;;;;;;;;;;;16.45;100.00;99061.66;5056433;28;20344;-90
2023/10/19 12:47:39;;;;;;;;;;;;;;;16.41;100.00;99063.63;5056058;28;20379;-89
2023/10/19 12:53:08;;;;;;;;;;;;;;;16.41;100.00;99060.97;5075007;28;19919;-90
2023/10/19 13:04:45;;;;;;;;;;;;;;;16.26;100.00;99036.41;5055010;28;19958;-89
2023/10/19 13:07:28;;;;;;;;;;;;;;;16.29;100.00;99040.63;5037427;28;19916;-90
2023/10/19 13:10:03;;;;;;;;;;;;;;;16.33;100.00;99020.97;5054124;28;19939;-90
2023/10/19 13:13:04;;;;;;;;;;;;;;;16.38;100.00;99024.19;5037858;28;19933;-89
2023/10/19 13:21:46;;;;;;;;;;;;;;;16.45;100.00;99014.91;5018184;28;19924;-91
2023/10/19 13:24:27;;;;;;;;;;;;;;;16.54;100.00;99013.44;5016724;28;19913;-91
2023/10/19 13:27:54;;;;;;;;;;;;;;;16.43;100.00;99013.31;5043273;28;19912;-91
2023/10/19 13:30:35;;;;;;;;;;;;;;;16.40;100.00;99009.06;5056070;28;19912;-91
2023/10/19 13:36:06;;;;;;;;;;;;;;;16.37;100.00;99008.41;5045190;28;19971;-92
2023/10/19 13:38:47;;;;;;;;;;;;;;;16.36;100.00;99014.66;5039916;28;20336;-92
2023/10/19 13:41:48;;;;;;;;;;;;;;;16.40;100.00;99016.97;5039889;28;20364;-90
2023/10/19 13:44:25;;;;;;;;;;;;;;;16.38;100.00;99010.13;5054341;28;19913;-90
2023/10/19 13:46:56;;;;;;;;;;;;;;;16.25;100.00;99005.63;5039214;28;19920;-90
2023/10/19 14:01:29;;;;;;;;;;;;;;;16.19;100.00;99000.75;5055749;28;19940;-90
2023/10/19 14:04:00;;;;;;;;;;;;;;;16.23;100.00;98999.59;5038492;28;19963;-92
2023/10/19 14:09:33;;;;;;;;;;;;;;;16.18;100.00;98992.91;5054149;28;20376;-91
2023/10/19 14:12:14;;;;;;;;;;;;;;;16.02;100.00;98979.81;5037662;28;20284;-90
2023/10/19 14:17:54;;;;;;;;;;;;;;;15.98;100.00;98979.19;5054581;28;20312;-90
2023/10/19 14:23:42;;;;;;;;;;;;;;;15.96;100.00;98956.44;5057925;28;19919;-91
2023/10/19 14:29:18;;;;;;;;;;;;;;;15.75;100.00;98946.28;5055491;28;19919;-91
2023/10/19 14:32:05;;;;;;;;;;;;;;;15.69;100.00;98941.41;5038172;28;19913;-92
2023/10/19 14:34:42;;;;;;;;;;;;;;;15.64;100.00;98933.75;5036753;28;19912;-90
2023/10/19 14:37:30;;;;;;;;;;;;;;;15.61;100.00;98928.66;5036985;28;19959;-91
2023/10/19 14:40:09;;;;;;;;;;;;;;;15.57;100.00;98917.47;5036884;28;20387;-91
2023/10/19 14:46:09;;;;;;;;;;;;;;;15.51;100.00;98896.72;5014913;28;19980;-91
2023/10/19 14:49:09;;;;;;;;;;;;;;;15.50;100.00;98888.88;4997330;28;19985;-91
2023/10/19 14:57:55;;;;;;;;;;;;;;;15.79;100.00;98889.72;5011704;28;19921;-90
2023/10/19 15:00:25;;;;;;;;;;;;;;;15.92;100.00;98889.78;4995809;28;20329;-89
2023/10/19 15:02:55;;;;;;;;;;;;;;;16.01;100.00;98886.50;4995804;28;20258;-91
2023/10/19 15:24:16;;;;;;;;;;;;;;;15.91;100.00;98896.81;4973916;28;19937;-91
2023/10/19 15:26:59;;;;;;;;;;;;;;;15.97;100.00;98886.81;4971941;28;19993;-90
2023/10/19 15:29:29;;;;;;;;;;;;;;;15.84;100.00;98882.31;4986499;28;20353;-89
2023/10/19 15:32:20;;;;;;;;;;;;;;;15.80;100.00;98875.53;4956092;28;19925;-89
2023/10/19 15:47:31;;;;;;;;;;;;;;;15.74;100.00;98852.16;5032023;28;19933;-90
2023/10/19 15:59:27;;;;;;;;;;;;;;;15.87;100.00;98839.88;5026153;28;19920;-89
2023/10/19 16:02:13;;;;;;;;;;;;;;;15.78;100.00;98837.81;5038377;28;20670;-89
2023/10/19 16:04:48;;;;;;;;;;;;;;;15.74;100.00;98833.66;5055105;28;20342;-90
2023/10/19 16:07:15;;;;;;;;;;;;;;;15.70;100.00;98829.53;5054505;28;19917;-90
2023/10/19 16:09:44;;;;;;;;;;;;;;;15.65;100.00;98836.91;5032356;28;19916;-90
2023/10/19 16:12:27;;;;;;;;;;;;;;;15.62;100.00;98843.25;5037902;28;20276;-90
2023/10/19 16:14:54;;;;;;;;;;;;;;;15.57;100.00;98846.19;5054737;28;20012;-90
2023/10/19 16:17:19;;;;;;;;;;;;;;;15.53;100.00;98849.09;5054772;28;19917;-90
2023/10/19 16:19:53;;;;;;;;;;;;;;;15.44;100.00;98842.63;5038133;28;19935;-89
2023/10/19 16:22:21;;;;;;;;;;;;;;;15.36;100.00;98851.03;5055278;28;19916;-89
2023/10/19 16:24:49;;;;;;;;;;;;;;;15.38;100.00;98849.13;5057429;28;20287;-89
2023/10/19 16:27:16;;;;;;;;;;;;;;;15.28;100.00;98855.94;5037860;28;19924;-88
2023/10/19 16:29:44;;;;;;;;;;;;;;;15.34;100.00;98854.72;5037574;28;20007;-88
2023/10/19 16:32:14;;;;;;;;;;;;;;;15.43;100.00;98854.13;5038012;28;20368;-90
2023/10/19 16:34:57;;;;;;;;;;;;;;;15.38;100.00;98850.94;5053878;28;20391;-89
2023/10/19 16:37:48;;;;;;;;;;;;;;;15.25;100.00;98851.69;5037688;28;19912;-90
2023/10/19 16:40:22;;;;;;;;;;;;;;;15.22;100.00;98864.25;5047312;28;19917;-88
2023/10/19 16:42:52;;;;;;;;;;;;;;;15.15;100.00;98860.31;5037059;28;19917;-88
2023/10/19 16:45:17;;;;;;;;;;;;;;;15.13;100.00;98855.13;5037337;28;20000;-90
2023/10/19 16:47:46;;;;;;;;;;;;;;;15.33;100.00;98855.63;5054118;28;19918;-89
2023/10/19 16:50:18;;;;;;;;;;;;;;;15.18;100.00;98858.31;5053754;28;20276;-88
2023/10/19 16:55:50;;;;;;;;;;;;;;;15.18;100.00;98863.59;5055080;28;19958;-89
2023/10/19 16:58:15;;;;;;;;;;;;;;;15.15;100.00;98863.78;5053843;28;19917;-91
2023/10/19 17:01:02;;;;;;;;;;;;;;;;;;;;;
2023/10/19 17:12:34;;;;;;;;;;;;;;;15.17;100.00;98853.13;5053225;28;19920;-89
2023/10/19 17:24:18;;;;;;;;;;;;;;;14.96;100.00;98840.34;5054760;28;19971;-89
2023/10/19 17:26:46;;;;;;;;;;;;;;;14.93;100.00;98835.25;5053701;28;19917;-89
2023/10/19 17:29:35;;;;;;;;;;;;;;;14.86;100.00;98826.03;5037542;28;19980;-89
2023/10/19 17:33:05;;;;;;;;;;;;;;;14.86;100.00;98815.47;5036738;28;19912;-89
2023/10/19 17:42:06;;;;;;;;;;;;;;;14.71;100.00;98799.66;4993184;28;19945;-88
2023/10/19 17:48:04;;;;;;;;;;;;;;;14.60;100.00;98793.34;5054142;28;20300;-89
2023/10/19 17:53:32;;;;;;;;;;;;;;;14.50;100.00;98799.16;5054215;28;19958;-89
2023/10/19 17:59:12;;;;;;;;;;;;;;;14.40;100.00;98808.56;5053712;28;19923;-89
2023/10/19 18:01:41;;;;;;;;;;;;;;;14.37;100.00;98804.31;5053416;28;20249;-90